sensor_id;sensor_type;location;lat;lon;timestamp;noise_LAeq;noise_LA_min;noise_LA_max;noise_LA01;noise_LA95
71230;Laerm;57282;52.514;13.458;2022-11-13T00:01:14;64.58;43.68;81.26;;
71230;Laerm;57282;52.514;13.458;2022-11-13T00:03:41;63.24;45.40;75.20;;
71230;Laerm;57282;52.514;13.458;2022-11-13T00:06:12;64.64;44.92;78.98;;
71230;Laerm;57282;52.514;13.458;2022-11-13T00:08:39;62.41;49.23;74.55;;
71230;Laerm;57282;52.514;13.458;2022-11-13T00:11:09;64.95;47.47;76.92;;
71230;Laerm;57282;52.514;13.458;2022-11-13T00:13:37;58.62;43.70;71.59;;
71230;Laerm;57282;52.514;13.458;2022-11-13T00:16:06;64.32;49.34;78.96;;
71230;Laerm;57282;52.514;13.458;2022-11-13T00:18:35;65.79;43.88;78.91;;
71230;Laerm;57282;52.514;13.458;2022-11-13T00:21:05;59.84;43.94;75.01;;
71230;Laerm;57282;52.514;13.458;2022-11-13T00:23:35;59.51;43.76;77.08;;
71230;Laerm;57282;52.514;13.458;2022-11-13T00:26:07;65.47;43.86;80.04;;
71230;Laerm;57282;52.514;13.458;2022-11-13T00:28:34;63.36;44.61;75.32;;
71230;Laerm;57282;52.514;13.458;2022-11-13T00:31:03;64.32;46.54;76.41;;
71230;Laerm;57282;52.514;13.458;2022-11-13T00:33:30;64.63;48.27;77.40;;
71230;Laerm;57282;52.514;13.458;2022-11-13T00:36:02;63.91;43.83;75.16;;
71230;Laerm;57282;52.514;13.458;2022-11-13T00:38:29;62.59;41.10;78.67;;
71230;Laerm;57282;52.514;13.458;2022-11-13T00:40:57;64.52;42.94;79.31;;
71230;Laerm;57282;52.514;13.458;2022-11-13T00:43:25;63.08;42.57;75.96;;
71230;Laerm;57282;52.514;13.458;2022-11-13T00:45:52;59.97;43.95;75.31;;
71230;Laerm;57282;52.514;13.458;2022-11-13T00:48:19;59.09;43.27;73.43;;
71230;Laerm;57282;52.514;13.458;2022-11-13T00:50:46;65.56;44.46;78.70;;
71230;Laerm;57282;52.514;13.458;2022-11-13T00:53:13;59.90;43.92;70.61;;
71230;Laerm;57282;52.514;13.458;2022-11-13T00:55:41;62.70;42.11;76.92;;
71230;Laerm;57282;52.514;13.458;2022-11-13T00:58:10;61.51;42.02;75.62;;
71230;Laerm;57282;52.514;13.458;2022-11-13T01:00:37;63.65;41.89;78.30;;
71230;Laerm;57282;52.514;13.458;2022-11-13T01:03:04;63.78;43.38;79.99;;
71230;Laerm;57282;52.514;13.458;2022-11-13T01:05:35;63.13;42.99;75.66;;
71230;Laerm;57282;52.514;13.458;2022-11-13T01:08:02;61.88;41.84;80.58;;
71230;Laerm;57282;52.514;13.458;2022-11-13T01:10:29;62.04;43.09;76.25;;
71230;Laerm;57282;52.514;13.458;2022-11-13T01:12:56;63.85;42.30;76.72;;
71230;Laerm;57282;52.514;13.458;2022-11-13T01:15:24;63.36;43.25;76.34;;
71230;Laerm;57282;52.514;13.458;2022-11-13T01:17:51;59.27;43.53;71.22;;
71230;Laerm;57282;52.514;13.458;2022-11-13T01:20:19;62.81;39.00;77.01;;
71230;Laerm;57282;52.514;13.458;2022-11-13T01:22:57;62.68;42.60;77.51;;
71230;Laerm;57282;52.514;13.458;2022-11-13T01:25:24;62.22;45.22;74.08;;
71230;Laerm;57282;52.514;13.458;2022-11-13T01:27:52;64.16;46.01;76.72;;
71230;Laerm;57282;52.514;13.458;2022-11-13T01:30:19;64.81;40.46;78.50;;
71230;Laerm;57282;52.514;13.458;2022-11-13T01:32:47;63.15;41.15;77.14;;
71230;Laerm;57282;52.514;13.458;2022-11-13T01:35:13;65.61;41.88;81.03;;
71230;Laerm;57282;52.514;13.458;2022-11-13T01:37:40;63.27;43.38;79.54;;
71230;Laerm;57282;52.514;13.458;2022-11-13T01:40:11;65.51;41.11;82.10;;
71230;Laerm;57282;52.514;13.458;2022-11-13T01:42:38;61.14;43.06;76.43;;
71230;Laerm;57282;52.514;13.458;2022-11-13T01:45:49;61.86;40.67;85.88;;
71230;Laerm;57282;52.514;13.458;2022-11-13T01:48:35;65.02;42.87;78.34;;
71230;Laerm;57282;52.514;13.458;2022-11-13T01:51:10;64.38;40.10;78.45;;
71230;Laerm;57282;52.514;13.458;2022-11-13T01:53:40;60.25;38.04;77.60;;
71230;Laerm;57282;52.514;13.458;2022-11-13T01:56:10;61.10;39.21;77.46;;
71230;Laerm;57282;52.514;13.458;2022-11-13T01:58:39;61.37;42.76;76.92;;
71230;Laerm;57282;52.514;13.458;2022-11-13T02:01:06;60.38;35.29;75.06;;
71230;Laerm;57282;52.514;13.458;2022-11-13T02:03:34;61.16;39.95;77.21;;
71230;Laerm;57282;52.514;13.458;2022-11-13T02:06:01;60.27;37.10;74.24;;
71230;Laerm;57282;52.514;13.458;2022-11-13T02:08:28;62.48;39.71;78.76;;
71230;Laerm;57282;52.514;13.458;2022-11-13T02:10:55;59.31;36.35;75.70;;
71230;Laerm;57282;52.514;13.458;2022-11-13T02:13:22;61.24;38.81;77.99;;
71230;Laerm;57282;52.514;13.458;2022-11-13T02:15:51;61.24;37.99;76.95;;
71230;Laerm;57282;52.514;13.458;2022-11-13T02:18:21;56.93;35.85;70.92;;
71230;Laerm;57282;52.514;13.458;2022-11-13T02:20:59;60.13;37.45;75.25;;
71230;Laerm;57282;52.514;13.458;2022-11-13T02:26:38;60.12;36.04;76.59;;
71230;Laerm;57282;52.514;13.458;2022-11-13T02:29:05;59.54;36.34;75.31;;
71230;Laerm;57282;52.514;13.458;2022-11-13T02:31:32;58.54;38.10;70.71;;
71230;Laerm;57282;52.514;13.458;2022-11-13T02:34:00;58.29;36.53;76.29;;
71230;Laerm;57282;52.514;13.458;2022-11-13T02:36:28;63.30;38.64;76.89;;
71230;Laerm;57282;52.514;13.458;2022-11-13T02:39:00;60.01;35.48;75.58;;
71230;Laerm;57282;52.514;13.458;2022-11-13T02:41:28;62.59;35.90;79.17;;
71230;Laerm;57282;52.514;13.458;2022-11-13T02:43:56;61.58;37.54;78.29;;
71230;Laerm;57282;52.514;13.458;2022-11-13T02:46:26;62.51;39.99;76.90;;
71230;Laerm;57282;52.514;13.458;2022-11-13T02:48:52;58.65;37.20;75.47;;
71230;Laerm;57282;52.514;13.458;2022-11-13T02:51:19;62.18;39.56;76.31;;
71230;Laerm;57282;52.514;13.458;2022-11-13T02:53:46;64.16;37.87;76.59;;
71230;Laerm;57282;52.514;13.458;2022-11-13T02:56:14;44.88;34.54;68.03;;
71230;Laerm;57282;52.514;13.458;2022-11-13T02:58:41;56.71;35.60;76.57;;
71230;Laerm;57282;52.514;13.458;2022-11-13T03:01:09;57.25;38.08;73.31;;
71230;Laerm;57282;52.514;13.458;2022-11-13T03:03:36;56.76;36.20;76.40;;
71230;Laerm;57282;52.514;13.458;2022-11-13T03:06:03;60.93;34.91;77.71;;
71230;Laerm;57282;52.514;13.458;2022-11-13T03:08:29;60.26;41.45;72.95;;
71230;Laerm;57282;52.514;13.458;2022-11-13T03:10:56;63.28;37.74;79.83;;
71230;Laerm;57282;52.514;13.458;2022-11-13T03:13:23;66.07;40.65;79.73;;
71230;Laerm;57282;52.514;13.458;2022-11-13T03:15:49;60.39;38.64;75.47;;
71230;Laerm;57282;52.514;13.458;2022-11-13T03:18:17;61.63;40.07;74.08;;
71230;Laerm;57282;52.514;13.458;2022-11-13T03:20:44;63.03;42.75;79.85;;
71230;Laerm;57282;52.514;13.458;2022-11-13T03:23:10;55.48;35.01;72.24;;
71230;Laerm;57282;52.514;13.458;2022-11-13T03:25:37;60.99;34.93;81.70;;
71230;Laerm;57282;52.514;13.458;2022-11-13T03:28:04;62.71;38.29;75.87;;
71230;Laerm;57282;52.514;13.458;2022-11-13T03:30:30;62.13;38.06;75.30;;
71230;Laerm;57282;52.514;13.458;2022-11-13T03:32:57;57.51;36.17;73.14;;
71230;Laerm;57282;52.514;13.458;2022-11-13T03:35:25;63.67;32.23;76.78;;
71230;Laerm;57282;52.514;13.458;2022-11-13T03:37:52;63.52;37.56;76.24;;
71230;Laerm;57282;52.514;13.458;2022-11-13T03:40:18;62.81;37.80;75.10;;
71230;Laerm;57282;52.514;13.458;2022-11-13T03:42:47;62.23;39.42;78.33;;
71230;Laerm;57282;52.514;13.458;2022-11-13T03:45:14;59.68;33.47;76.49;;
71230;Laerm;57282;52.514;13.458;2022-11-13T03:47:40;58.98;33.07;73.51;;
71230;Laerm;57282;52.514;13.458;2022-11-13T03:50:08;56.37;34.08;72.30;;
71230;Laerm;57282;52.514;13.458;2022-11-13T03:52:36;61.66;35.26;77.71;;
71230;Laerm;57282;52.514;13.458;2022-11-13T03:55:03;61.09;32.53;81.27;;
71230;Laerm;57282;52.514;13.458;2022-11-13T03:57:30;57.12;32.01;74.36;;
71230;Laerm;57282;52.514;13.458;2022-11-13T03:59:57;66.99;38.61;82.03;;
71230;Laerm;57282;52.514;13.458;2022-11-13T04:02:24;60.49;36.57;74.39;;
71230;Laerm;57282;52.514;13.458;2022-11-13T04:04:50;64.93;37.79;78.47;;
71230;Laerm;57282;52.514;13.458;2022-11-13T04:07:17;59.18;34.92;76.07;;
71230;Laerm;57282;52.514;13.458;2022-11-13T04:09:45;64.62;33.10;79.30;;
71230;Laerm;57282;52.514;13.458;2022-11-13T04:12:14;63.64;32.66;77.88;;
71230;Laerm;57282;52.514;13.458;2022-11-13T04:14:41;62.15;36.64;77.67;;
71230;Laerm;57282;52.514;13.458;2022-11-13T04:17:08;63.33;36.48;74.25;;
71230;Laerm;57282;52.514;13.458;2022-11-13T04:19:34;57.43;32.85;74.62;;
71230;Laerm;57282;52.514;13.458;2022-11-13T04:22:01;59.61;33.09;76.28;;
71230;Laerm;57282;52.514;13.458;2022-11-13T04:24:27;63.41;38.71;79.62;;
71230;Laerm;57282;52.514;13.458;2022-11-13T04:26:55;61.73;37.36;76.67;;
71230;Laerm;57282;52.514;13.458;2022-11-13T04:29:22;57.13;34.88;74.81;;
71230;Laerm;57282;52.514;13.458;2022-11-13T04:31:49;62.43;33.47;80.21;;
71230;Laerm;57282;52.514;13.458;2022-11-13T04:34:15;60.71;34.25;77.20;;
71230;Laerm;57282;52.514;13.458;2022-11-13T04:36:42;55.42;33.48;74.12;;
71230;Laerm;57282;52.514;13.458;2022-11-13T04:39:09;61.71;35.76;79.48;;
71230;Laerm;57282;52.514;13.458;2022-11-13T04:41:35;63.01;34.56;86.11;;
71230;Laerm;57282;52.514;13.458;2022-11-13T04:44:21;60.59;35.59;79.74;;
71230;Laerm;57282;52.514;13.458;2022-11-13T04:46:48;60.19;34.67;73.28;;
71230;Laerm;57282;52.514;13.458;2022-11-13T04:49:14;58.47;34.57;75.99;;
71230;Laerm;57282;52.514;13.458;2022-11-13T04:51:41;64.40;34.15;79.58;;
71230;Laerm;57282;52.514;13.458;2022-11-13T04:54:07;63.30;36.31;81.54;;
71230;Laerm;57282;52.514;13.458;2022-11-13T04:56:34;52.70;33.39;69.32;;
71230;Laerm;57282;52.514;13.458;2022-11-13T04:59:01;43.32;36.11;51.77;;
71230;Laerm;57282;52.514;13.458;2022-11-13T05:01:29;58.48;33.95;77.46;;
71230;Laerm;57282;52.514;13.458;2022-11-13T05:03:55;62.27;34.53;78.06;;
71230;Laerm;57282;52.514;13.458;2022-11-13T05:06:22;60.38;31.81;76.02;;
71230;Laerm;57282;52.514;13.458;2022-11-13T05:08:51;40.96;32.07;54.84;;
71230;Laerm;57282;52.514;13.458;2022-11-13T05:11:23;60.37;33.40;79.06;;
71230;Laerm;57282;52.514;13.458;2022-11-13T05:13:49;58.58;33.13;78.05;;
71230;Laerm;57282;52.514;13.458;2022-11-13T05:16:16;40.33;32.61;56.00;;
71230;Laerm;57282;52.514;13.458;2022-11-13T05:18:45;58.63;36.50;76.54;;
71230;Laerm;57282;52.514;13.458;2022-11-13T05:21:12;46.17;37.14;59.87;;
71230;Laerm;57282;52.514;13.458;2022-11-13T05:23:39;64.03;34.01;83.04;;
71230;Laerm;57282;52.514;13.458;2022-11-13T05:26:09;58.36;35.56;75.33;;
71230;Laerm;57282;52.514;13.458;2022-11-13T05:28:37;63.05;35.12;79.33;;
71230;Laerm;57282;52.514;13.458;2022-11-13T05:31:06;60.91;36.62;77.92;;
71230;Laerm;57282;52.514;13.458;2022-11-13T05:33:33;58.88;36.15;71.05;;
71230;Laerm;57282;52.514;13.458;2022-11-13T05:36:03;61.16;33.69;79.13;;
71230;Laerm;57282;52.514;13.458;2022-11-13T05:38:30;56.25;32.24;72.49;;
71230;Laerm;57282;52.514;13.458;2022-11-13T05:41:03;59.77;32.21;79.26;;
71230;Laerm;57282;52.514;13.458;2022-11-13T05:43:30;56.24;34.16;72.47;;
71230;Laerm;57282;52.514;13.458;2022-11-13T05:46:01;62.04;34.67;76.61;;
71230;Laerm;57282;52.514;13.458;2022-11-13T05:48:28;60.55;35.04;82.05;;
71230;Laerm;57282;52.514;13.458;2022-11-13T05:51:02;48.59;34.86;66.41;;
71230;Laerm;57282;52.514;13.458;2022-11-13T05:53:29;64.76;37.00;82.79;;
71230;Laerm;57282;52.514;13.458;2022-11-13T05:56:02;59.94;35.24;76.29;;
71230;Laerm;57282;52.514;13.458;2022-11-13T05:58:30;59.46;33.45;74.67;;
71230;Laerm;57282;52.514;13.458;2022-11-13T06:01:08;52.84;35.03;70.52;;
71230;Laerm;57282;52.514;13.458;2022-11-13T06:03:35;58.90;36.06;77.19;;
71230;Laerm;57282;52.514;13.458;2022-11-13T06:06:06;61.26;34.76;75.02;;
71230;Laerm;57282;52.514;13.458;2022-11-13T06:08:34;53.71;34.00;72.26;;
71230;Laerm;57282;52.514;13.458;2022-11-13T06:11:03;62.77;38.49;76.47;;
71230;Laerm;57282;52.514;13.458;2022-11-13T06:13:30;58.06;36.96;73.97;;
71230;Laerm;57282;52.514;13.458;2022-11-13T06:16:00;60.50;34.86;78.32;;
71230;Laerm;57282;52.514;13.458;2022-11-13T06:18:28;57.18;36.01;75.50;;
71230;Laerm;57282;52.514;13.458;2022-11-13T06:21:06;61.65;36.18;80.45;;
71230;Laerm;57282;52.514;13.458;2022-11-13T06:23:36;59.75;35.06;79.18;;
71230;Laerm;57282;52.514;13.458;2022-11-13T06:26:06;60.40;35.32;79.01;;
71230;Laerm;57282;52.514;13.458;2022-11-13T06:28:33;44.36;33.10;64.14;;
71230;Laerm;57282;52.514;13.458;2022-11-13T06:31:05;53.23;34.20;74.87;;
71230;Laerm;57282;52.514;13.458;2022-11-13T06:33:32;62.19;35.75;76.80;;
71230;Laerm;57282;52.514;13.458;2022-11-13T06:36:00;56.78;34.60;74.97;;
71230;Laerm;57282;52.514;13.458;2022-11-13T06:38:43;58.84;33.64;75.56;;
71230;Laerm;57282;52.514;13.458;2022-11-13T06:41:15;62.49;38.93;74.81;;
71230;Laerm;57282;52.514;13.458;2022-11-13T06:43:43;60.58;36.69;75.21;;
71230;Laerm;57282;52.514;13.458;2022-11-13T06:46:13;55.93;33.35;73.95;;
71230;Laerm;57282;52.514;13.458;2022-11-13T06:48:41;60.98;37.26;78.57;;
71230;Laerm;57282;52.514;13.458;2022-11-13T06:51:18;61.02;34.51;75.77;;
71230;Laerm;57282;52.514;13.458;2022-11-13T06:53:48;58.71;34.03;75.02;;
71230;Laerm;57282;52.514;13.458;2022-11-13T06:56:15;56.67;35.81;72.93;;
71230;Laerm;57282;52.514;13.458;2022-11-13T06:58:52;56.99;32.76;77.07;;
71230;Laerm;57282;52.514;13.458;2022-11-13T07:01:22;61.73;39.75;75.92;;
71230;Laerm;57282;52.514;13.458;2022-11-13T07:03:49;58.35;35.29;72.55;;
71230;Laerm;57282;52.514;13.458;2022-11-13T07:06:18;61.01;36.32;75.54;;
71230;Laerm;57282;52.514;13.458;2022-11-13T07:08:47;60.02;34.67;77.98;;
71230;Laerm;57282;52.514;13.458;2022-11-13T07:11:18;43.78;34.57;58.21;;
71230;Laerm;57282;52.514;13.458;2022-11-13T07:13:46;60.66;39.85;73.61;;
71230;Laerm;57282;52.514;13.458;2022-11-13T07:16:14;60.95;34.16;79.57;;
71230;Laerm;57282;52.514;13.458;2022-11-13T07:18:41;59.13;35.56;76.17;;
71230;Laerm;57282;52.514;13.458;2022-11-13T07:21:11;58.22;34.67;75.06;;
71230;Laerm;57282;52.514;13.458;2022-11-13T07:23:54;60.32;36.63;78.84;;
71230;Laerm;57282;52.514;13.458;2022-11-13T07:26:21;55.75;37.74;68.17;;
71230;Laerm;57282;52.514;13.458;2022-11-13T07:28:48;59.85;42.72;75.77;;
71230;Laerm;57282;52.514;13.458;2022-11-13T07:31:16;60.50;48.38;75.82;;
71230;Laerm;57282;52.514;13.458;2022-11-13T07:33:46;58.95;37.05;73.12;;
71230;Laerm;57282;52.514;13.458;2022-11-13T07:36:13;61.16;36.06;74.26;;
71230;Laerm;57282;52.514;13.458;2022-11-13T07:38:40;64.36;41.96;76.11;;
71230;Laerm;57282;52.514;13.458;2022-11-13T07:41:08;62.53;37.23;74.58;;
71230;Laerm;57282;52.514;13.458;2022-11-13T07:43:35;62.62;37.07;74.58;;
71230;Laerm;57282;52.514;13.458;2022-11-13T07:46:01;58.50;34.75;78.15;;
71230;Laerm;57282;52.514;13.458;2022-11-13T07:48:31;61.83;39.68;76.35;;
71230;Laerm;57282;52.514;13.458;2022-11-13T07:51:00;57.95;35.17;74.95;;
71230;Laerm;57282;52.514;13.458;2022-11-13T07:53:27;58.64;39.36;71.77;;
71230;Laerm;57282;52.514;13.458;2022-11-13T07:55:54;57.28;38.21;75.92;;
71230;Laerm;57282;52.514;13.458;2022-11-13T07:58:22;61.62;39.39;77.96;;
71230;Laerm;57282;52.514;13.458;2022-11-13T08:00:48;59.27;36.73;74.46;;
71230;Laerm;57282;52.514;13.458;2022-11-13T08:03:18;56.37;36.71;74.51;;
71230;Laerm;57282;52.514;13.458;2022-11-13T08:05:47;64.67;44.49;78.00;;
71230;Laerm;57282;52.514;13.458;2022-11-13T08:08:20;60.49;36.30;73.52;;
71230;Laerm;57282;52.514;13.458;2022-11-13T08:10:47;66.07;38.88;81.57;;
71230;Laerm;57282;52.514;13.458;2022-11-13T08:13:43;59.56;35.19;74.61;;
71230;Laerm;57282;52.514;13.458;2022-11-13T08:16:09;58.82;35.80;77.33;;
71230;Laerm;57282;52.514;13.458;2022-11-13T08:18:36;58.87;38.10;72.01;;
71230;Laerm;57282;52.514;13.458;2022-11-13T08:21:04;59.97;44.14;72.66;;
71230;Laerm;57282;52.514;13.458;2022-11-13T08:23:31;62.35;36.63;76.10;;
71230;Laerm;57282;52.514;13.458;2022-11-13T08:26:03;59.35;36.16;73.11;;
71230;Laerm;57282;52.514;13.458;2022-11-13T08:28:30;59.93;39.60;77.17;;
71230;Laerm;57282;52.514;13.458;2022-11-13T08:30:59;57.70;38.81;69.93;;
71230;Laerm;57282;52.514;13.458;2022-11-13T08:33:26;60.30;40.83;73.85;;
71230;Laerm;57282;52.514;13.458;2022-11-13T08:35:53;64.26;40.33;79.69;;
71230;Laerm;57282;52.514;13.458;2022-11-13T08:38:20;60.56;42.18;74.67;;
71230;Laerm;57282;52.514;13.458;2022-11-13T08:40:47;59.04;39.24;76.05;;
71230;Laerm;57282;52.514;13.458;2022-11-13T08:43:14;65.88;40.03;92.85;;
71230;Laerm;57282;52.514;13.458;2022-11-13T08:45:44;60.23;38.81;74.94;;
71230;Laerm;57282;52.514;13.458;2022-11-13T08:48:13;63.86;39.72;77.71;;
71230;Laerm;57282;52.514;13.458;2022-11-13T08:50:40;64.26;42.83;77.04;;
71230;Laerm;57282;52.514;13.458;2022-11-13T08:53:07;64.92;44.13;81.71;;
71230;Laerm;57282;52.514;13.458;2022-11-13T08:55:34;62.87;38.00;77.33;;
71230;Laerm;57282;52.514;13.458;2022-11-13T08:58:03;66.70;41.60;90.39;;
71230;Laerm;57282;52.514;13.458;2022-11-13T09:00:31;64.62;44.28;77.61;;
71230;Laerm;57282;52.514;13.458;2022-11-13T09:02:59;62.37;42.19;76.46;;
71230;Laerm;57282;52.514;13.458;2022-11-13T09:05:27;64.97;45.93;77.38;;
71230;Laerm;57282;52.514;13.458;2022-11-13T09:07:59;66.05;41.18;81.35;;
71230;Laerm;57282;52.514;13.458;2022-11-13T09:10:27;65.86;41.54;77.95;;
71230;Laerm;57282;52.514;13.458;2022-11-13T09:12:58;62.23;42.16;79.69;;
71230;Laerm;57282;52.514;13.458;2022-11-13T09:15:26;64.07;45.65;78.15;;
71230;Laerm;57282;52.514;13.458;2022-11-13T09:17:56;61.40;43.05;72.99;;
71230;Laerm;57282;52.514;13.458;2022-11-13T09:20:23;60.23;39.29;76.61;;
71230;Laerm;57282;52.514;13.458;2022-11-13T09:22:57;63.79;46.63;77.31;;
71230;Laerm;57282;52.514;13.458;2022-11-13T09:25:24;61.84;41.65;75.03;;
71230;Laerm;57282;52.514;13.458;2022-11-13T09:27:52;64.41;40.21;76.65;;
71230;Laerm;57282;52.514;13.458;2022-11-13T09:30:21;60.01;40.06;72.48;;
71230;Laerm;57282;52.514;13.458;2022-11-13T09:32:51;65.32;44.09;79.46;;
71230;Laerm;57282;52.514;13.458;2022-11-13T09:35:19;60.66;42.33;76.10;;
71230;Laerm;57282;52.514;13.458;2022-11-13T09:38:00;63.62;39.39;76.90;;
71230;Laerm;57282;52.514;13.458;2022-11-13T09:40:32;64.02;44.07;79.37;;
71230;Laerm;57282;52.514;13.458;2022-11-13T09:43:01;63.63;45.04;79.08;;
71230;Laerm;57282;52.514;13.458;2022-11-13T09:45:29;64.75;46.23;74.51;;
71230;Laerm;57282;52.514;13.458;2022-11-13T09:48:09;60.35;40.18;74.23;;
71230;Laerm;57282;52.514;13.458;2022-11-13T09:50:39;67.98;45.26;88.09;;
71230;Laerm;57282;52.514;13.458;2022-11-13T09:53:10;66.47;43.34;83.32;;
71230;Laerm;57282;52.514;13.458;2022-11-13T09:55:55;62.25;46.67;81.36;;
71230;Laerm;57282;52.514;13.458;2022-11-13T09:58:35;61.20;46.12;83.24;;
71230;Laerm;57282;52.514;13.458;2022-11-13T10:01:14;64.45;46.91;79.05;;
71230;Laerm;57282;52.514;13.458;2022-11-13T10:03:49;62.95;50.47;72.71;;
71230;Laerm;57282;52.514;13.458;2022-11-13T10:06:27;63.06;48.16;78.36;;
71230;Laerm;57282;52.514;13.458;2022-11-13T10:09:06;61.00;49.55;76.68;;
71230;Laerm;57282;52.514;13.458;2022-11-13T10:11:43;62.55;49.72;73.35;;
71230;Laerm;57282;52.514;13.458;2022-11-13T10:14:17;61.68;42.42;77.54;;
71230;Laerm;57282;52.514;13.458;2022-11-13T10:16:50;59.32;45.76;73.71;;
71230;Laerm;57282;52.514;13.458;2022-11-13T10:19:25;64.34;49.21;76.06;;
71230;Laerm;57282;52.514;13.458;2022-11-13T10:22:01;63.82;44.70;78.97;;
71230;Laerm;57282;52.514;13.458;2022-11-13T10:24:37;61.79;47.27;71.41;;
71230;Laerm;57282;52.514;13.458;2022-11-13T10:27:08;64.27;46.95;72.97;;
71230;Laerm;57282;52.514;13.458;2022-11-13T10:29:40;65.04;45.94;77.83;;
71230;Laerm;57282;52.514;13.458;2022-11-13T10:32:21;65.35;44.71;74.92;;
71230;Laerm;57282;52.514;13.458;2022-11-13T10:34:53;64.32;45.25;77.32;;
71230;Laerm;57282;52.514;13.458;2022-11-13T10:37:45;65.84;42.86;76.50;;
71230;Laerm;57282;52.514;13.458;2022-11-13T10:40:24;65.42;42.22;78.63;;
71230;Laerm;57282;52.514;13.458;2022-11-13T10:42:51;65.69;43.60;77.14;;
71230;Laerm;57282;52.514;13.458;2022-11-13T10:45:20;61.58;46.06;75.77;;
71230;Laerm;57282;52.514;13.458;2022-11-13T10:47:50;65.09;45.16;76.81;;
71230;Laerm;57282;52.514;13.458;2022-11-13T10:50:24;62.33;46.61;73.83;;
71230;Laerm;57282;52.514;13.458;2022-11-13T10:52:54;64.21;45.41;74.76;;
71230;Laerm;57282;52.514;13.458;2022-11-13T10:55:36;66.27;48.93;87.05;;
71230;Laerm;57282;52.514;13.458;2022-11-13T10:58:12;66.11;44.78;76.64;;
71230;Laerm;57282;52.514;13.458;2022-11-13T11:00:40;63.60;50.95;76.85;;
71230;Laerm;57282;52.514;13.458;2022-11-13T11:03:14;65.13;44.48;74.63;;
71230;Laerm;57282;52.514;13.458;2022-11-13T11:05:52;63.63;47.07;76.41;;
71230;Laerm;57282;52.514;13.458;2022-11-13T11:08:27;64.10;47.16;78.28;;
71230;Laerm;57282;52.514;13.458;2022-11-13T11:10:59;64.85;48.08;77.14;;
71230;Laerm;57282;52.514;13.458;2022-11-13T11:13:47;63.57;47.24;74.22;;
71230;Laerm;57282;52.514;13.458;2022-11-13T11:16:20;61.52;44.50;72.22;;
71230;Laerm;57282;52.514;13.458;2022-11-13T11:19:04;62.75;46.68;75.79;;
71230;Laerm;57282;52.514;13.458;2022-11-13T11:21:36;64.62;45.34;77.61;;
71230;Laerm;57282;52.514;13.458;2022-11-13T11:24:13;62.23;45.37;75.24;;
71230;Laerm;57282;52.514;13.458;2022-11-13T11:26:53;65.30;48.13;77.75;;
71230;Laerm;57282;52.514;13.458;2022-11-13T11:29:41;63.20;49.77;79.06;;
71230;Laerm;57282;52.514;13.458;2022-11-13T11:32:18;64.44;51.86;75.57;;
71230;Laerm;57282;52.514;13.458;2022-11-13T11:34:59;62.00;45.80;73.60;;
71230;Laerm;57282;52.514;13.458;2022-11-13T11:37:35;65.43;45.94;77.28;;
71230;Laerm;57282;52.514;13.458;2022-11-13T11:40:14;66.19;51.70;76.44;;
71230;Laerm;57282;52.514;13.458;2022-11-13T11:42:53;64.75;48.10;78.35;;
71230;Laerm;57282;52.514;13.458;2022-11-13T11:45:26;63.64;49.38;77.06;;
71230;Laerm;57282;52.514;13.458;2022-11-13T11:47:57;64.36;47.30;78.23;;
71230;Laerm;57282;52.514;13.458;2022-11-13T11:50:43;65.84;44.34;76.89;;
71230;Laerm;57282;52.514;13.458;2022-11-13T11:53:19;64.78;48.54;77.40;;
71230;Laerm;57282;52.514;13.458;2022-11-13T11:56:14;65.21;45.59;75.50;;
71230;Laerm;57282;52.514;13.458;2022-11-13T11:59:04;63.32;44.89;78.34;;
71230;Laerm;57282;52.514;13.458;2022-11-13T12:01:55;65.82;46.06;80.62;;
71230;Laerm;57282;52.514;13.458;2022-11-13T12:04:45;64.43;49.03;82.64;;
71230;Laerm;57282;52.514;13.458;2022-11-13T12:07:29;64.68;51.42;73.78;;
71230;Laerm;57282;52.514;13.458;2022-11-13T12:10:09;65.03;47.62;75.89;;
71230;Laerm;57282;52.514;13.458;2022-11-13T12:13:02;62.98;49.02;74.50;;
71230;Laerm;57282;52.514;13.458;2022-11-13T12:15:45;64.61;49.19;73.62;;
71230;Laerm;57282;52.514;13.458;2022-11-13T12:18:25;65.86;54.21;77.92;;
71230;Laerm;57282;52.514;13.458;2022-11-13T12:21:06;64.76;47.42;82.75;;
71230;Laerm;57282;52.514;13.458;2022-11-13T12:24:00;66.51;47.60;75.56;;
71230;Laerm;57282;52.514;13.458;2022-11-13T12:26:41;65.54;49.85;75.94;;
71230;Laerm;57282;52.514;13.458;2022-11-13T12:29:39;62.59;45.13;80.49;;
71230;Laerm;57282;52.514;13.458;2022-11-13T12:32:35;65.16;50.64;82.06;;
71230;Laerm;57282;52.514;13.458;2022-11-13T12:35:11;63.48;47.84;74.02;;
71230;Laerm;57282;52.514;13.458;2022-11-13T12:37:49;64.65;42.67;74.14;;
71230;Laerm;57282;52.514;13.458;2022-11-13T12:40:26;65.20;45.86;79.66;;
71230;Laerm;57282;52.514;13.458;2022-11-13T12:43:24;63.71;50.16;74.13;;
71230;Laerm;57282;52.514;13.458;2022-11-13T12:45:55;64.82;49.92;74.83;;
71230;Laerm;57282;52.514;13.458;2022-11-13T12:48:34;63.84;49.19;75.02;;
71230;Laerm;57282;52.514;13.458;2022-11-13T12:51:03;64.25;51.80;72.83;;
71230;Laerm;57282;52.514;13.458;2022-11-13T12:53:45;61.84;49.01;72.48;;
71230;Laerm;57282;52.514;13.458;2022-11-13T12:56:29;61.25;51.06;71.59;;
71230;Laerm;57282;52.514;13.458;2022-11-13T12:58:59;63.36;48.92;75.62;;
71230;Laerm;57282;52.514;13.458;2022-11-13T13:01:30;64.85;48.49;78.54;;
71230;Laerm;57282;52.514;13.458;2022-11-13T13:04:36;62.87;49.98;74.66;;
71230;Laerm;57282;52.514;13.458;2022-11-13T13:07:24;64.39;48.29;76.04;;
71230;Laerm;57282;52.514;13.458;2022-11-13T13:10:13;63.09;44.25;78.60;;
71230;Laerm;57282;52.514;13.458;2022-11-13T13:12:53;64.72;43.77;77.93;;
71230;Laerm;57282;52.514;13.458;2022-11-13T13:15:36;63.49;47.57;76.11;;
71230;Laerm;57282;52.514;13.458;2022-11-13T13:18:10;61.81;48.41;72.83;;
71230;Laerm;57282;52.514;13.458;2022-11-13T13:20:40;63.27;48.54;71.85;;
71230;Laerm;57282;52.514;13.458;2022-11-13T13:23:12;64.11;47.80;76.23;;
71230;Laerm;57282;52.514;13.458;2022-11-13T13:25:45;65.01;47.67;74.60;;
71230;Laerm;57282;52.514;13.458;2022-11-13T13:28:17;66.68;49.50;75.85;;
71230;Laerm;57282;52.514;13.458;2022-11-13T13:30:56;65.53;50.68;88.81;;
71230;Laerm;57282;52.514;13.458;2022-11-13T13:33:38;63.71;47.06;74.20;;
71230;Laerm;57282;52.514;13.458;2022-11-13T13:36:35;65.29;47.97;77.46;;
71230;Laerm;57282;52.514;13.458;2022-11-13T13:39:20;63.94;47.54;79.63;;
71230;Laerm;57282;52.514;13.458;2022-11-13T13:42:10;64.01;48.54;73.91;;
71230;Laerm;57282;52.514;13.458;2022-11-13T13:45:00;63.53;44.64;73.98;;
71230;Laerm;57282;52.514;13.458;2022-11-13T13:47:34;65.77;46.23;78.93;;
71230;Laerm;57282;52.514;13.458;2022-11-13T13:50:05;65.90;50.42;81.87;;
71230;Laerm;57282;52.514;13.458;2022-11-13T13:52:35;64.14;48.48;78.63;;
71230;Laerm;57282;52.514;13.458;2022-11-13T13:55:06;66.13;47.97;78.54;;
71230;Laerm;57282;52.514;13.458;2022-11-13T13:57:41;63.75;47.32;78.67;;
71230;Laerm;57282;52.514;13.458;2022-11-13T14:00:11;64.02;51.71;73.23;;